Orion — VRBZ2 — position and weather

sailwx.info

Track history (hours):
 
Tides and Currents Weather Stations Pressure Air Temp Water Temp Dewpoint Dewpoint Depression Visibility Wind Speed Wind Dir Waves Ship Positions

Orion

Last reported at 2017-Nov-12 14:46 UTC. Time now 2017-Nov-17 21:24 UTC.
Position S 32°46' W 071°30'.

Length 181 m; draft 9.3 m.

Type: Ship (hazmat cat C). MMSI: 477241100.

Date/timePositionNaut miles runAvg speedWind from/ knotsBaromVisibWave heightAir tempDewpointWater temp
2017-Nov-12 14:46S 32°46' W 071°30'0 0.0
2017-Nov-12 14:31S 32°46' W 071°30'0 0.0
2017-Nov-12 14:00S 32°46' W 071°30'0 0.0
2017-Nov-12 13:30S 32°46' W 071°30'0 0.0
2017-Nov-12 13:00S 32°46' W 071°30'0 0.0
2017-Nov-12 12:31S 32°46' W 071°30'0 0.0
2017-Nov-12 11:59S 32°46' W 071°30'0 0.0
2017-Nov-12 10:55S 32°46' W 071°30'0 0.0
2017-Nov-12 10:24S 32°46' W 071°30'0 0.0
2017-Nov-12 03:04S 32°46' W 071°30'0 1.0
2017-Nov-12 02:57S 32°46' W 071°30'1 2.6
2017-Nov-12 02:30S 32°45' W 071°31'0 0.1
2017-Nov-11 23:32S 32°46' W 071°32'0 0.0
2017-Nov-11 23:30S 32°46' W 071°32'0 0.0
2017-Nov-11 23:00S 32°46' W 071°32'0 0.0
2017-Nov-11 22:30S 32°46' W 071°32'0 0.0
2017-Nov-11 22:00S 32°46' W 071°32'0 0.2
2017-Nov-11 21:27S 32°46' W 071°32'0 0.1
2017-Nov-11 20:58S 32°46' W 071°32'0 0.0
2017-Nov-11 16:12S 32°46' W 071°32'0 0.0
2017-Nov-11 15:21S 32°46' W 071°32'0 0.0
2017-Nov-11 14:36S 32°46' W 071°32'0 0.0
2017-Nov-11 14:11S 32°46' W 071°32'0 0.0
2017-Nov-11 13:44S 32°46' W 071°32'1 1.3
2017-Nov-11 13:15S 32°45' W 071°32'2 3.4
2017-Nov-11 12:37S 32°45' W 071°34'1 4.3
2017-Nov-11 12:30S 32°45' W 071°35'3 5.1
2017-Nov-11 11:57S 32°47' W 071°38'512.0
2017-Nov-11 11:30S 32°51' W 071°41'612.4
2017-Nov-11 11:00S 32°57' W 071°45'712.9
2017-Nov-11 10:30S 33°02' W 071°48'  
2017-Nov-05 00:40S 33°02' W 071°48'214.7
2017-Nov-05 00:30S 32°60' W 071°46'714.4
2017-Nov-05 00:00S 32°53' W 071°42'714.7
2017-Nov-04 23:30S 32°47' W 071°38'511.0
2017-Nov-04 23:00S 32°44' W 071°32'3 0.1
2017-Nov-03 22:03S 32°46' W 071°30'0 0.0
2017-Nov-03 21:45S 32°46' W 071°30'0 0.0
2017-Nov-03 21:21S 32°46' W 071°30'0 0.0
2017-Nov-03 13:51S 32°46' W 071°30'1 0.5
2017-Nov-03 11:12S 32°46' W 071°32'0 0.0
2017-Nov-03 10:49S 32°46' W 071°32'0 0.0
2017-Nov-03 10:29S 32°46' W 071°32'0 0.0
2017-Nov-03 09:59S 32°46' W 071°32'0 0.0
2017-Nov-03 08:09S 32°46' W 071°32'0 0.1
2017-Nov-03 07:59S 32°46' W 071°32'0 0.0
2017-Nov-03 07:23S 32°46' W 071°31'0 0.0
2017-Nov-03 06:29S 32°46' W 071°31'0 0.0
2017-Nov-03 05:57S 32°46' W 071°31'0 0.1
2017-Nov-03 04:46S 32°46' W 071°32'0 0.0
2017-Nov-03 04:15S 32°46' W 071°32'0 0.0
2017-Nov-03 03:02S 32°46' W 071°32'0 0.2
2017-Nov-03 03:00S 32°46' W 071°32'0 0.0
2017-Nov-03 01:11S 32°46' W 071°32'1 3.3
2017-Nov-03 00:47S 32°46' W 071°30'  
Track history (hours):
 
Tides and Currents Weather Stations Pressure Air Temp Water Temp Dewpoint Dewpoint Depression Visibility Wind Speed Wind Dir Waves Ship Positions

Orion

Last reported at 2017-Nov-12 14:46 UTC. Time now 2017-Nov-17 21:24 UTC.
Position S 32°46' W 071°30'.

Length 181 m; draft 9.3 m.

Type: Ship (hazmat cat C). MMSI: 477241100.

Date/timePositionNaut miles runAvg speedWind from/ knotsBaromVisibWave heightAir tempDewpointWater temp
2017-Nov-12 14:46S 32°46' W 071°30'0 0.0
2017-Nov-12 14:31S 32°46' W 071°30'0 0.0
2017-Nov-12 14:00S 32°46' W 071°30'0 0.0
2017-Nov-12 13:30S 32°46' W 071°30'0 0.0
2017-Nov-12 13:00S 32°46' W 071°30'0 0.0
2017-Nov-12 12:31S 32°46' W 071°30'0 0.0
2017-Nov-12 11:59S 32°46' W 071°30'0 0.0
2017-Nov-12 10:55S 32°46' W 071°30'0 0.0
2017-Nov-12 10:24S 32°46' W 071°30'0 0.0
2017-Nov-12 03:04S 32°46' W 071°30'0 1.0
2017-Nov-12 02:57S 32°46' W 071°30'1 2.6
2017-Nov-12 02:30S 32°45' W 071°31'0 0.1
2017-Nov-11 23:32S 32°46' W 071°32'0 0.0
2017-Nov-11 23:30S 32°46' W 071°32'0 0.0
2017-Nov-11 23:00S 32°46' W 071°32'0 0.0
2017-Nov-11 22:30S 32°46' W 071°32'0 0.0
2017-Nov-11 22:00S 32°46' W 071°32'0 0.2
2017-Nov-11 21:27S 32°46' W 071°32'0 0.1
2017-Nov-11 20:58S 32°46' W 071°32'0 0.0
2017-Nov-11 16:12S 32°46' W 071°32'0 0.0
2017-Nov-11 15:21S 32°46' W 071°32'0 0.0
2017-Nov-11 14:36S 32°46' W 071°32'0 0.0
2017-Nov-11 14:11S 32°46' W 071°32'0 0.0
2017-Nov-11 13:44S 32°46' W 071°32'1 1.3
2017-Nov-11 13:15S 32°45' W 071°32'2 3.4
2017-Nov-11 12:37S 32°45' W 071°34'1 4.3
2017-Nov-11 12:30S 32°45' W 071°35'3 5.1
2017-Nov-11 11:57S 32°47' W 071°38'512.0
2017-Nov-11 11:30S 32°51' W 071°41'612.4
2017-Nov-11 11:00S 32°57' W 071°45'712.9
2017-Nov-11 10:30S 33°02' W 071°48'  
2017-Nov-05 00:40S 33°02' W 071°48'214.7
2017-Nov-05 00:30S 32°60' W 071°46'714.4
2017-Nov-05 00:00S 32°53' W 071°42'714.7
2017-Nov-04 23:30S 32°47' W 071°38'511.0
2017-Nov-04 23:00S 32°44' W 071°32'3 0.1
2017-Nov-03 22:03S 32°46' W 071°30'0 0.0
2017-Nov-03 21:45S 32°46' W 071°30'0 0.0
2017-Nov-03 21:21S 32°46' W 071°30'0 0.0
2017-Nov-03 13:51S 32°46' W 071°30'1 0.5
2017-Nov-03 11:12S 32°46' W 071°32'0 0.0
2017-Nov-03 10:49S 32°46' W 071°32'0 0.0
2017-Nov-03 10:29S 32°46' W 071°32'0 0.0
2017-Nov-03 09:59S 32°46' W 071°32'0 0.0
2017-Nov-03 08:09S 32°46' W 071°32'0 0.1
2017-Nov-03 07:59S 32°46' W 071°32'0 0.0
2017-Nov-03 07:23S 32°46' W 071°31'0 0.0
2017-Nov-03 06:29S 32°46' W 071°31'0 0.0
2017-Nov-03 05:57S 32°46' W 071°31'0 0.1
2017-Nov-03 04:46S 32°46' W 071°32'0 0.0
2017-Nov-03 04:15S 32°46' W 071°32'0 0.0
2017-Nov-03 03:02S 32°46' W 071°32'0 0.2
2017-Nov-03 03:00S 32°46' W 071°32'0 0.0
2017-Nov-03 01:11S 32°46' W 071°32'1 3.3
2017-Nov-03 00:47S 32°46' W 071°30'  

Dump ship's entire track history